createdAt,value
2017-07-26T00:01:45.312Z,3.13
2017-07-26T00:04:12.859Z,2.70
2017-07-26T00:06:40.440Z,2.60
2017-07-26T00:09:08.126Z,2.40
2017-07-26T00:11:35.666Z,4.43
2017-07-26T00:14:03.243Z,2.33
2017-07-26T00:16:30.793Z,2.50
2017-07-26T00:18:58.383Z,2.13
2017-07-26T00:21:26.697Z,2.13
2017-07-26T00:23:54.238Z,1.80
2017-07-26T00:26:21.817Z,2.10
2017-07-26T00:28:49.354Z,1.97
2017-07-26T00:31:16.931Z,2.30
2017-07-26T00:33:44.479Z,2.20
2017-07-26T00:36:12.070Z,1.93
2017-07-26T00:38:39.609Z,1.80
2017-07-26T00:41:07.156Z,1.83
2017-07-26T00:43:34.719Z,2.13
2017-07-26T00:46:02.257Z,2.20
2017-07-26T00:48:29.877Z,1.80
2017-07-26T00:50:57.507Z,2.20
2017-07-26T00:53:25.048Z,2.07
2017-07-26T00:55:52.628Z,2.00
2017-07-26T00:58:20.181Z,1.80
2017-07-26T01:00:47.755Z,1.90
2017-07-26T01:03:15.285Z,1.90
2017-07-26T01:05:42.976Z,1.67
2017-07-26T01:08:10.524Z,1.60
2017-07-26T01:10:38.116Z,1.90
2017-07-26T01:13:06.440Z,1.67
2017-07-26T01:15:33.987Z,2.30
2017-07-26T01:18:01.570Z,1.70
2017-07-26T01:20:29.142Z,1.80
2017-07-26T01:22:56.719Z,1.60
2017-07-26T01:25:24.288Z,1.77
2017-07-26T01:27:52.597Z,1.50
2017-07-26T01:30:20.132Z,2.27
2017-07-26T01:32:48.487Z,1.70
2017-07-26T01:35:16.047Z,1.60
2017-07-26T01:37:43.687Z,1.47
2017-07-26T01:40:11.393Z,1.50
2017-07-26T01:42:38.978Z,1.80
2017-07-26T01:45:06.561Z,1.57
2017-07-26T01:47:34.104Z,1.60
2017-07-26T01:50:01.704Z,1.30
2017-07-26T01:52:30.229Z,1.60
2017-07-26T01:54:57.882Z,1.70
2017-07-26T01:57:25.461Z,1.30
2017-07-26T01:59:53.006Z,1.97
2017-07-26T02:02:20.576Z,1.60
2017-07-26T02:04:48.123Z,2.00
2017-07-26T02:07:15.707Z,1.60
2017-07-26T02:09:43.262Z,2.17
2017-07-26T02:12:10.800Z,1.80
2017-07-26T02:14:38.373Z,1.63
2017-07-26T02:17:06.052Z,1.60
2017-07-26T02:19:33.630Z,1.30
2017-07-26T02:22:01.951Z,2.03
2017-07-26T02:24:29.513Z,1.97
2017-07-26T02:26:57.066Z,2.23
2017-07-26T02:29:24.645Z,1.90
2017-07-26T02:31:52.307Z,1.80
2017-07-26T02:34:19.846Z,2.27
2017-07-26T02:36:47.417Z,2.60
2017-07-26T02:39:14.953Z,2.20
2017-07-26T02:41:42.534Z,2.60
2017-07-26T02:44:10.075Z,2.83
2017-07-26T02:46:37.662Z,3.10
2017-07-26T02:49:05.201Z,2.87
2017-07-26T02:51:32.749Z,2.80
2017-07-26T02:54:00.317Z,2.97
2017-07-26T02:56:27.862Z,3.57
2017-07-26T02:58:55.400Z,3.50
2017-07-26T03:01:22.978Z,2.67
2017-07-26T03:03:50.542Z,3.17
2017-07-26T03:06:18.084Z,2.50
2017-07-26T03:08:45.666Z,3.03
2017-07-26T03:11:13.210Z,2.67
2017-07-26T03:13:40.764Z,3.07
2017-07-26T03:16:08.397Z,2.90
2017-07-26T03:18:36.814Z,2.87
2017-07-26T03:21:04.493Z,3.50
2017-07-26T03:23:32.036Z,3.40
2017-07-26T03:25:59.674Z,3.80
2017-07-26T03:28:27.261Z,3.80
2017-07-26T03:30:54.802Z,4.40
2017-07-26T03:33:22.401Z,4.57
2017-07-26T03:35:49.954Z,4.70
2017-07-26T03:38:17.547Z,4.50
2017-07-26T03:40:45.941Z,4.80
2017-07-26T03:43:13.549Z,5.30
2017-07-26T03:45:41.240Z,5.17
2017-07-26T03:48:09.555Z,4.63
2017-07-26T03:50:37.141Z,5.53
2017-07-26T03:53:04.692Z,4.87
2017-07-26T03:55:32.235Z,4.00
2017-07-26T03:57:59.806Z,4.80
2017-07-26T04:00:27.381Z,4.77
2017-07-26T04:02:55.040Z,5.40
2017-07-26T04:05:22.629Z,4.90
2017-07-26T04:07:50.177Z,5.70
2017-07-26T04:10:18.535Z,5.97
2017-07-26T04:12:46.076Z,7.00
2017-07-26T04:15:13.623Z,5.90
2017-07-26T04:17:41.286Z,6.10
2017-07-26T04:20:08.811Z,6.57
2017-07-26T04:22:36.383Z,6.83
2017-07-26T04:25:03.921Z,6.57
2017-07-26T04:27:31.506Z,8.20
2017-07-26T04:29:59.050Z,7.60
2017-07-26T04:32:26.636Z,7.80
2017-07-26T04:34:54.186Z,9.03
2017-07-26T04:37:21.730Z,8.57
2017-07-26T04:39:49.327Z,9.23
2017-07-26T04:42:16.874Z,8.63
2017-07-26T04:44:44.405Z,8.80
2017-07-26T04:47:12.095Z,8.27
2017-07-26T04:49:39.673Z,7.17
2017-07-26T04:52:07.227Z,7.77
2017-07-26T04:54:34.909Z,8.67
2017-07-26T04:57:03.247Z,6.80
2017-07-26T04:59:30.796Z,7.60
2017-07-26T05:01:58.421Z,8.30
2017-07-26T05:04:25.978Z,7.90
2017-07-26T05:06:53.734Z,8.83
2017-07-26T05:09:21.307Z,7.70
2017-07-26T05:11:48.841Z,8.30
2017-07-26T05:14:17.190Z,8.00
2017-07-26T05:16:44.736Z,8.50
2017-07-26T05:19:12.269Z,7.60
2017-07-26T05:21:39.852Z,8.50
2017-07-26T05:24:07.389Z,9.27
2017-07-26T05:26:35.086Z,8.90
2017-07-26T05:29:02.621Z,8.73
2017-07-26T05:31:30.273Z,8.60
2017-07-26T05:33:57.822Z,8.60
2017-07-26T05:36:25.380Z,7.73
2017-07-26T05:38:52.957Z,9.03
2017-07-26T05:41:20.676Z,8.53
2017-07-26T05:43:48.218Z,9.13
2017-07-26T09:40:12.463Z,7.30
2017-07-26T09:42:39.987Z,8.73
2017-07-26T09:45:07.566Z,8.30
2017-07-26T09:47:35.111Z,7.53
2017-07-26T09:50:02.693Z,7.60
2017-07-26T09:52:30.235Z,8.83
2017-07-26T09:54:57.803Z,8.23
2017-07-26T09:57:25.383Z,9.03
2017-07-26T09:59:52.932Z,8.13
2017-07-26T10:02:20.490Z,8.70
2017-07-26T10:04:48.043Z,9.20
2017-07-26T10:07:15.615Z,9.40
2017-07-26T10:09:43.136Z,9.63
2017-07-26T10:12:10.729Z,9.60
2017-07-26T10:14:38.344Z,9.47
2017-07-26T10:17:05.938Z,9.67
2017-07-26T10:19:33.549Z,9.87
2017-07-26T10:22:01.262Z,10.40
2017-07-26T10:24:28.797Z,8.80
2017-07-26T10:26:56.340Z,8.60
2017-07-26T10:29:23.879Z,10.90
2017-07-26T10:31:51.432Z,8.73
2017-07-26T10:34:19.031Z,12.60
2017-07-26T10:36:46.550Z,8.50
2017-07-26T10:39:14.303Z,8.90
2017-07-26T10:41:42.606Z,10.10
2017-07-26T10:44:10.139Z,7.93
2017-07-26T10:46:37.739Z,8.30
2017-07-26T10:49:05.269Z,10.70
2017-07-26T10:51:32.836Z,13.97
2017-07-26T10:54:00.358Z,14.57
2017-07-26T10:56:28.650Z,7.67
2017-07-26T10:58:56.207Z,6.80
2017-07-26T11:01:23.735Z,12.40
2017-07-26T11:03:51.334Z,7.83
2017-07-26T11:06:18.866Z,9.00
2017-07-26T11:08:48.171Z,8.90
2017-07-26T11:11:16.563Z,9.03
2017-07-26T11:13:44.128Z,7.70
2017-07-26T11:16:11.734Z,8.60
2017-07-26T11:18:39.262Z,8.50
2017-07-26T11:21:06.833Z,8.10
2017-07-26T11:23:34.363Z,7.30
2017-07-26T11:26:01.931Z,7.40
2017-07-26T11:28:29.526Z,7.00
2017-07-26T11:30:57.054Z,6.73
2017-07-26T11:33:24.602Z,6.77
2017-07-26T11:35:52.131Z,6.70
2017-07-26T11:38:20.455Z,6.70
2017-07-26T11:40:47.978Z,6.63
2017-07-26T11:43:15.505Z,7.10
2017-07-26T11:45:43.038Z,6.77
2017-07-26T11:48:10.618Z,7.10
2017-07-26T11:50:38.172Z,7.27
2017-07-26T11:53:05.694Z,7.27
2017-07-26T11:55:33.270Z,6.87
2017-07-26T11:58:00.778Z,7.10
2017-07-26T12:00:28.316Z,6.67
2017-07-26T12:02:56.645Z,6.80
2017-07-26T12:05:24.181Z,7.37
2017-07-26T12:07:51.738Z,7.67
2017-07-26T12:10:19.268Z,8.47
2017-07-26T12:12:47.583Z,7.97
2017-07-26T12:15:15.137Z,7.53
2017-07-26T12:17:42.665Z,7.17
2017-07-26T12:20:10.987Z,6.57
2017-07-26T12:22:38.511Z,7.77
2017-07-26T12:25:06.043Z,6.83
2017-07-26T12:27:34.346Z,6.90
2017-07-26T12:30:01.888Z,8.07
2017-07-26T12:32:30.248Z,6.33
2017-07-26T12:34:57.774Z,7.10
2017-07-26T12:37:25.310Z,6.83
2017-07-26T12:39:52.867Z,6.67
2017-07-26T12:42:20.386Z,7.07
2017-07-26T12:44:48.707Z,6.87
2017-07-26T12:47:16.231Z,6.50
2017-07-26T12:49:44.532Z,7.00
2017-07-26T12:52:12.095Z,7.00
2017-07-26T12:54:39.617Z,6.53
2017-07-26T12:57:07.980Z,7.67
2017-07-26T12:59:36.302Z,6.20
2017-07-26T13:02:03.922Z,7.20
2017-07-26T13:04:32.218Z,7.20
2017-07-26T13:06:59.779Z,6.10
2017-07-26T13:09:27.310Z,6.83
2017-07-26T13:11:55.594Z,6.43
2017-07-26T13:14:23.930Z,6.80
2017-07-26T13:16:51.466Z,6.60
2017-07-26T13:19:18.990Z,6.47
2017-07-26T13:21:46.607Z,6.47
2017-07-26T13:24:14.146Z,6.57
2017-07-26T13:26:41.705Z,6.83
2017-07-26T13:29:09.254Z,6.37
2017-07-26T13:31:36.950Z,6.47
2017-07-26T13:34:04.475Z,6.07
2017-07-26T13:36:32.018Z,7.07
2017-07-26T13:38:59.589Z,6.07
2017-07-26T13:41:27.115Z,6.00
2017-07-26T13:43:55.491Z,6.90
2017-07-26T13:46:23.830Z,5.90
2017-07-26T13:48:51.583Z,6.70
2017-07-26T13:51:19.111Z,5.30
2017-07-26T13:53:46.665Z,5.83
2017-07-26T13:56:14.192Z,5.97
2017-07-26T13:58:42.495Z,5.60
2017-07-26T14:01:10.035Z,6.00
2017-07-26T14:03:37.655Z,6.00
2017-07-26T14:06:05.218Z,5.23
2017-07-26T14:08:32.742Z,5.20
2017-07-26T14:11:00.329Z,5.83
2017-07-26T14:13:27.989Z,6.03
2017-07-26T14:15:55.525Z,6.47
2017-07-26T14:18:23.085Z,6.23
2017-07-26T14:20:50.798Z,5.87
2017-07-26T14:23:19.147Z,5.73
2017-07-26T14:25:46.710Z,5.70
2017-07-26T14:28:14.226Z,5.40
2017-07-26T14:30:41.799Z,5.37
2017-07-26T14:33:09.335Z,5.37
2017-07-26T14:35:36.855Z,5.57
2017-07-26T14:38:05.197Z,5.20
2017-07-26T14:40:32.728Z,5.40
2017-07-26T14:43:00.403Z,6.03
2017-07-26T14:45:27.947Z,5.63
2017-07-26T14:47:55.542Z,4.70
2017-07-26T14:50:23.106Z,4.70
2017-07-26T14:52:50.663Z,4.70
2017-07-26T14:55:18.215Z,4.10
2017-07-26T14:57:45.766Z,3.87
2017-07-26T15:00:13.475Z,3.60
2017-07-26T15:02:41.012Z,3.90
2017-07-26T15:05:08.583Z,3.50
2017-07-26T15:07:36.910Z,3.87
2017-07-26T15:10:04.534Z,3.43
2017-07-26T15:12:32.114Z,3.37
2017-07-26T15:14:59.653Z,3.57
2017-07-26T15:17:27.182Z,3.00
2017-07-26T15:19:55.998Z,3.73
2017-07-26T15:22:23.537Z,4.17
2017-07-26T15:24:51.876Z,3.77
2017-07-26T15:27:19.544Z,3.03
2017-07-26T15:29:47.071Z,3.17
2017-07-26T15:32:14.623Z,3.07
2017-07-26T15:34:42.151Z,3.67
2017-07-26T15:37:09.719Z,3.60
2017-07-26T15:39:37.377Z,3.63
2017-07-26T15:42:05.674Z,3.53
2017-07-26T15:44:33.223Z,4.57
2017-07-26T15:47:00.850Z,2.90
2017-07-26T15:49:29.190Z,3.73
2017-07-26T15:51:56.838Z,3.60
2017-07-26T15:54:24.359Z,3.17
2017-07-26T15:56:51.928Z,3.20
2017-07-26T15:59:19.639Z,3.60
2017-07-26T16:01:47.167Z,3.43
2017-07-26T16:04:14.710Z,3.63
2017-07-26T16:06:42.250Z,3.80
2017-07-26T16:09:09.809Z,3.03
2017-07-26T16:11:37.351Z,3.10
2017-07-26T16:14:05.644Z,3.40
2017-07-26T16:16:33.233Z,3.10
2017-07-26T16:19:00.754Z,3.17
2017-07-26T16:21:28.334Z,3.10
2017-07-26T16:23:55.876Z,3.30
2017-07-26T16:26:23.490Z,3.53
2017-07-26T16:28:51.176Z,3.53
2017-07-26T16:31:19.594Z,3.10
2017-07-26T16:33:47.152Z,3.07
2017-07-26T16:36:14.718Z,3.03
2017-07-26T16:38:42.226Z,3.17
2017-07-26T16:41:10.574Z,3.33
2017-07-26T16:43:38.086Z,3.30
2017-07-26T16:46:05.620Z,3.60
2017-07-26T16:48:33.954Z,3.73
2017-07-26T16:51:01.589Z,2.37
2017-07-26T16:53:29.113Z,2.93
2017-07-26T16:55:57.453Z,3.20
2017-07-26T16:58:24.967Z,3.20
2017-07-26T17:00:52.469Z,2.73
2017-07-26T17:03:20.038Z,3.53
2017-07-26T17:05:47.602Z,3.17
2017-07-26T17:08:15.326Z,3.33
2017-07-26T17:10:42.874Z,3.10
2017-07-26T17:13:10.454Z,2.80
2017-07-26T17:15:37.983Z,3.17
2017-07-26T17:18:05.518Z,3.17
2017-07-26T17:20:33.853Z,3.17
2017-07-26T17:23:01.375Z,3.03
2017-07-26T17:25:28.923Z,3.70
2017-07-26T17:27:56.456Z,3.50
2017-07-26T17:30:24.018Z,3.40
2017-07-26T17:32:52.316Z,3.23
2017-07-26T17:35:19.866Z,3.20
2017-07-26T17:37:47.404Z,3.40
2017-07-26T17:40:15.760Z,3.07
2017-07-26T17:42:43.432Z,2.70
2017-07-26T17:45:10.952Z,3.27
2017-07-26T17:47:38.662Z,3.47
2017-07-26T17:50:06.961Z,3.40
2017-07-26T17:52:34.523Z,3.03
2017-07-26T17:55:02.072Z,2.90
2017-07-26T17:57:29.663Z,3.00
2017-07-26T17:59:57.192Z,3.00
2017-07-26T18:02:24.723Z,3.57
2017-07-26T18:04:53.040Z,3.37
2017-07-26T18:07:20.559Z,3.10
2017-07-26T18:09:48.889Z,2.97
2017-07-26T18:12:16.427Z,2.73
2017-07-26T18:14:43.951Z,2.90
2017-07-26T18:17:12.450Z,2.90
2017-07-26T18:19:40.230Z,3.43
2017-07-26T18:22:07.785Z,3.50
2017-07-26T18:24:35.307Z,3.20
2017-07-26T18:27:03.782Z,3.57
2017-07-26T18:29:32.074Z,3.77
2017-07-26T18:32:00.389Z,4.40
2017-07-26T18:34:27.938Z,3.73
2017-07-26T18:36:55.462Z,3.30
2017-07-26T18:39:23.783Z,3.63
2017-07-26T18:41:51.279Z,3.63
2017-07-26T18:44:18.838Z,3.30
2017-07-26T18:46:47.146Z,3.50
2017-07-26T18:49:14.817Z,3.10
2017-07-26T18:51:42.381Z,3.20
2017-07-26T18:54:09.899Z,3.30
2017-07-26T18:56:38.238Z,3.87
2017-07-26T18:59:05.800Z,3.97
2017-07-26T19:01:33.332Z,3.60
2017-07-26T19:04:00.864Z,3.63
2017-07-26T19:06:28.434Z,3.47
2017-07-26T19:08:55.975Z,4.17
2017-07-26T19:11:23.631Z,4.30
2017-07-26T19:13:51.950Z,4.67
2017-07-26T19:16:19.502Z,4.40
2017-07-26T19:18:47.087Z,4.60
2017-07-26T19:21:14.646Z,4.70
2017-07-26T19:23:42.345Z,5.80
2017-07-26T19:26:10.639Z,4.23
2017-07-26T19:28:38.215Z,3.47
2017-07-26T19:31:05.760Z,3.90
2017-07-26T19:33:33.303Z,4.23
2017-07-26T19:36:00.877Z,4.50
2017-07-26T19:38:28.420Z,4.00
2017-07-26T19:40:56.037Z,4.67
2017-07-26T19:43:23.586Z,4.10
2017-07-26T19:45:51.169Z,4.33
2017-07-26T19:48:19.463Z,4.50
2017-07-26T19:50:46.988Z,4.03
2017-07-26T19:53:14.550Z,4.60
2017-07-26T19:55:42.072Z,5.00
2017-07-26T19:58:09.827Z,4.53
2017-07-26T20:00:37.348Z,4.90
2017-07-26T20:03:05.699Z,4.50
2017-07-26T20:05:33.414Z,4.83
2017-07-26T20:08:00.966Z,4.83
2017-07-26T20:10:28.542Z,4.77
2017-07-26T20:12:56.086Z,5.10
2017-07-26T20:15:23.631Z,4.40
2017-07-26T20:17:51.217Z,4.30
2017-07-26T20:20:18.848Z,4.77
2017-07-26T20:22:46.614Z,4.60
2017-07-26T20:25:14.143Z,4.70
2017-07-26T20:27:41.706Z,4.70
2017-07-26T20:30:10.002Z,4.53
2017-07-26T20:32:37.531Z,4.67
2017-07-26T20:35:05.096Z,3.60
2017-07-26T20:37:33.551Z,4.40
2017-07-26T20:40:01.123Z,4.57
2017-07-26T20:42:28.674Z,5.73
2017-07-26T20:44:56.331Z,4.83
2017-07-26T20:47:23.883Z,4.70
2017-07-26T20:49:51.452Z,4.97
2017-07-26T20:52:18.984Z,4.87
2017-07-26T20:54:46.609Z,4.83
2017-07-26T20:57:14.166Z,5.30
2017-07-26T20:59:41.698Z,4.80
2017-07-26T21:02:10.022Z,5.20
2017-07-26T21:04:37.643Z,4.93
2017-07-26T21:07:05.964Z,4.53
2017-07-26T21:09:33.602Z,4.90
2017-07-26T21:12:01.152Z,4.97
2017-07-26T21:14:28.727Z,5.00
2017-07-26T21:16:56.252Z,5.00
2017-07-26T21:19:24.595Z,5.17
2017-07-26T21:21:52.134Z,5.33
2017-07-26T21:24:19.698Z,4.80
2017-07-26T21:26:47.221Z,5.50
2017-07-26T21:29:14.791Z,4.60
2017-07-26T21:31:42.363Z,5.10
2017-07-26T21:34:09.903Z,5.40
2017-07-26T21:36:37.474Z,5.10
2017-07-26T21:39:05.031Z,5.70
2017-07-26T21:41:32.632Z,4.63
2017-07-26T21:44:00.179Z,5.23
2017-07-26T21:46:27.714Z,5.70
2017-07-26T21:48:55.282Z,4.53
2017-07-26T21:51:22.810Z,4.57
2017-07-26T21:53:50.353Z,4.83
2017-07-26T21:56:18.682Z,4.70
2017-07-26T21:58:46.315Z,5.40
2017-07-26T22:01:13.854Z,5.80
2017-07-26T22:03:41.415Z,4.97
2017-07-26T22:06:08.988Z,4.90
2017-07-26T22:08:36.510Z,5.10
2017-07-26T22:11:04.069Z,5.33
2017-07-26T22:13:32.394Z,4.93
2017-07-26T22:15:59.923Z,5.10
2017-07-26T22:18:27.446Z,4.93
2017-07-26T22:20:55.758Z,5.27
2017-07-26T22:23:23.296Z,5.00
2017-07-26T22:25:50.842Z,5.40
2017-07-26T22:28:19.135Z,4.73
2017-07-26T22:30:46.738Z,5.20
2017-07-26T22:33:14.271Z,5.73
2017-07-26T22:35:42.003Z,5.03
2017-07-26T22:38:10.287Z,5.50
2017-07-26T22:40:37.803Z,4.57
2017-07-26T22:43:05.358Z,4.73
2017-07-26T22:45:32.875Z,5.60
2017-07-26T22:48:00.419Z,4.67
2017-07-26T22:50:27.987Z,5.13
2017-07-26T22:52:55.530Z,5.13
2017-07-26T22:55:23.050Z,5.10
2017-07-26T22:57:50.570Z,4.43
2017-07-26T23:00:18.124Z,5.20
2017-07-26T23:02:45.645Z,5.43
2017-07-26T23:05:13.897Z,4.80
2017-07-26T23:07:41.582Z,4.57
2017-07-26T23:10:09.869Z,4.73
2017-07-26T23:12:37.615Z,5.40
2017-07-26T23:15:05.897Z,4.27
2017-07-26T23:17:34.210Z,4.70
2017-07-26T23:20:01.741Z,4.90
2017-07-26T23:22:29.272Z,4.20
2017-07-26T23:24:56.823Z,4.70
2017-07-26T23:27:24.398Z,4.37
2017-07-26T23:29:52.731Z,4.70
2017-07-26T23:32:20.257Z,4.90
2017-07-26T23:34:47.798Z,4.63
2017-07-26T23:37:15.363Z,5.10
2017-07-26T23:39:42.881Z,4.13
2017-07-26T23:42:10.402Z,5.13
2017-07-26T23:44:37.982Z,4.80
2017-07-26T23:47:05.597Z,4.87
2017-07-26T23:49:33.154Z,4.80
2017-07-26T23:52:00.677Z,4.30
2017-07-26T23:54:28.201Z,4.50
2017-07-26T23:56:55.890Z,4.83
2017-07-26T23:59:23.542Z,4.23
